sensor_id;sensor_type;location;lat;lon;timestamp;temperature;humidity
52273;DHT22;38227;50.942;4.016;2022-09-14T06:42:19;16.30;99.90
52273;DHT22;38227;50.942;4.016;2022-09-14T06:44:53;15.80;99.90
52273;DHT22;38227;50.942;4.016;2022-09-14T06:47:32;15.90;99.90
52273;DHT22;38227;50.942;4.016;2022-09-14T06:50:04;16.00;99.90
52273;DHT22;38227;50.942;4.016;2022-09-14T06:52:37;16.10;99.90
52273;DHT22;38227;50.942;4.016;2022-09-14T06:55:09;16.20;99.90
52273;DHT22;38227;50.942;4.016;2022-09-14T06:57:40;16.40;99.90
52273;DHT22;38227;50.942;4.016;2022-09-14T07:00:17;16.50;99.90
52273;DHT22;38227;50.942;4.016;2022-09-14T07:02:49;16.50;99.90
52273;DHT22;38227;50.942;4.016;2022-09-14T07:05:21;16.60;99.90
52273;DHT22;38227;50.942;4.016;2022-09-14T07:07:52;16.70;99.90
52273;DHT22;38227;50.942;4.016;2022-09-14T07:10:25;16.70;99.90
52273;DHT22;38227;50.942;4.016;2022-09-14T07:13:04;16.80;99.90
52273;DHT22;38227;50.942;4.016;2022-09-14T07:15:48;16.70;99.90
52273;DHT22;38227;50.942;4.016;2022-09-14T07:18:19;16.90;99.90
52273;DHT22;38227;50.942;4.016;2022-09-14T07:20:50;16.90;99.90
52273;DHT22;38227;50.942;4.016;2022-09-14T07:23:32;17.00;99.90
52273;DHT22;38227;50.942;4.016;2022-09-14T07:26:05;16.90;99.90
52273;DHT22;38227;50.942;4.016;2022-09-14T07:28:34;16.90;99.90
52273;DHT22;38227;50.942;4.016;2022-09-14T07:34:08;17.00;99.90
52273;DHT22;38227;50.942;4.016;2022-09-14T07:36:38;17.10;99.90
52273;DHT22;38227;50.942;4.016;2022-09-14T07:39:09;17.10;99.90
52273;DHT22;38227;50.942;4.016;2022-09-14T07:41:42;17.10;99.90
52273;DHT22;38227;50.942;4.016;2022-09-14T07:44:15;17.00;99.90
52273;DHT22;38227;50.942;4.016;2022-09-14T07:46:46;16.90;99.90
52273;DHT22;38227;50.942;4.016;2022-09-14T07:49:14;16.90;99.90
52273;DHT22;38227;50.942;4.016;2022-09-14T07:51:45;17.00;99.90
52273;DHT22;38227;50.942;4.016;2022-09-14T07:54:17;17.10;99.90
52273;DHT22;38227;50.942;4.016;2022-09-14T07:56:46;17.10;99.90
52273;DHT22;38227;50.942;4.016;2022-09-14T07:59:15;17.00;99.90
52273;DHT22;38227;50.942;4.016;2022-09-14T08:01:44;17.00;99.90
52273;DHT22;38227;50.942;4.016;2022-09-14T08:04:14;17.00;99.90
52273;DHT22;38227;50.942;4.016;2022-09-14T08:06:46;17.00;99.90
52273;DHT22;38227;50.942;4.016;2022-09-14T08:09:14;17.00;99.90
52273;DHT22;38227;50.942;4.016;2022-09-14T08:11:42;17.10;99.90
52273;DHT22;38227;50.942;4.016;2022-09-14T08:14:11;17.00;99.90
52273;DHT22;38227;50.942;4.016;2022-09-14T08:16:42;16.90;99.90
52273;DHT22;38227;50.942;4.016;2022-09-14T08:19:13;16.90;99.90
52273;DHT22;38227;50.942;4.016;2022-09-14T08:21:42;16.90;99.90
52273;DHT22;38227;50.942;4.016;2022-09-14T08:24:18;16.80;99.90
52273;DHT22;38227;50.942;4.016;2022-09-14T08:26:50;16.80;99.90
52273;DHT22;38227;50.942;4.016;2022-09-14T08:29:18;16.80;99.90
52273;DHT22;38227;50.942;4.016;2022-09-14T08:31:47;16.80;99.90
52273;DHT22;38227;50.942;4.016;2022-09-14T08:34:18;16.70;99.90
52273;DHT22;38227;50.942;4.016;2022-09-14T08:36:47;16.70;99.90
52273;DHT22;38227;50.942;4.016;2022-09-14T08:39:22;16.90;99.90
52273;DHT22;38227;50.942;4.016;2022-09-14T08:41:57;17.00;99.90
52273;DHT22;38227;50.942;4.016;2022-09-14T08:44:39;17.20;99.90
52273;DHT22;38227;50.942;4.016;2022-09-14T08:47:33;17.10;99.90
52273;DHT22;38227;50.942;4.016;2022-09-14T08:50:29;17.20;99.90
52273;DHT22;38227;50.942;4.016;2022-09-14T08:52:58;17.20;99.90
52273;DHT22;38227;50.942;4.016;2022-09-14T08:55:55;17.20;99.90
52273;DHT22;38227;50.942;4.016;2022-09-14T09:05:19;17.20;99.90
52273;DHT22;38227;50.942;4.016;2022-09-14T09:08:26;17.20;99.90
52273;DHT22;38227;50.942;4.016;2022-09-14T09:10:58;17.20;99.90
52273;DHT22;38227;50.942;4.016;2022-09-14T09:13:32;17.30;99.90
52273;DHT22;38227;50.942;4.016;2022-09-14T09:16:05;17.40;99.90
52273;DHT22;38227;50.942;4.016;2022-09-14T09:18:44;17.30;99.90
52273;DHT22;38227;50.942;4.016;2022-09-14T09:21:22;17.20;99.90
52273;DHT22;38227;50.942;4.016;2022-09-14T09:23:54;17.20;99.90
52273;DHT22;38227;50.942;4.016;2022-09-14T09:26:30;17.20;99.90
52273;DHT22;38227;50.942;4.016;2022-09-14T09:29:00;17.30;99.90
52273;DHT22;38227;50.942;4.016;2022-09-14T09:31:40;17.30;99.90
52273;DHT22;38227;50.942;4.016;2022-09-14T09:34:14;17.30;99.90
52273;DHT22;38227;50.942;4.016;2022-09-14T09:36:47;17.20;99.90
52273;DHT22;38227;50.942;4.016;2022-09-14T09:39:15;17.30;99.90
52273;DHT22;38227;50.942;4.016;2022-09-14T09:45:05;17.30;99.90
52273;DHT22;38227;50.942;4.016;2022-09-14T09:47:47;17.40;99.90
52273;DHT22;38227;50.942;4.016;2022-09-14T09:50:34;17.40;99.90
52273;DHT22;38227;50.942;4.016;2022-09-14T09:53:02;17.30;99.90
52273;DHT22;38227;50.942;4.016;2022-09-14T09:55:38;17.30;99.90
52273;DHT22;38227;50.942;4.016;2022-09-14T09:58:37;17.30;99.90
52273;DHT22;38227;50.942;4.016;2022-09-14T10:01:17;17.30;99.90
52273;DHT22;38227;50.942;4.016;2022-09-14T10:04:05;17.40;99.90
52273;DHT22;38227;50.942;4.016;2022-09-14T10:06:41;17.50;99.90
52273;DHT22;38227;50.942;4.016;2022-09-14T10:09:17;17.60;99.90
52273;DHT22;38227;50.942;4.016;2022-09-14T10:11:47;17.50;99.90
52273;DHT22;38227;50.942;4.016;2022-09-14T10:14:45;17.60;99.90
52273;DHT22;38227;50.942;4.016;2022-09-14T10:17:34;17.50;99.90
52273;DHT22;38227;50.942;4.016;2022-09-14T10:20:02;17.50;99.90
52273;DHT22;38227;50.942;4.016;2022-09-14T10:22:33;17.60;99.90
52273;DHT22;38227;50.942;4.016;2022-09-14T10:28:29;17.70;99.90
52273;DHT22;38227;50.942;4.016;2022-09-14T10:33:57;17.50;99.90
52273;DHT22;38227;50.942;4.016;2022-09-14T10:36:41;17.60;99.90
52273;DHT22;38227;50.942;4.016;2022-09-14T10:39:39;17.50;99.90
52273;DHT22;38227;50.942;4.016;2022-09-14T10:42:39;17.50;99.90
52273;DHT22;38227;50.942;4.016;2022-09-14T10:45:23;17.60;99.90
52273;DHT22;38227;50.942;4.016;2022-09-14T10:51:46;17.60;99.90
52273;DHT22;38227;50.942;4.016;2022-09-14T10:58:01;17.80;99.90
52273;DHT22;38227;50.942;4.016;2022-09-14T11:03:54;17.60;99.90
52273;DHT22;38227;50.942;4.016;2022-09-14T11:10:09;17.80;99.90
52273;DHT22;38227;50.942;4.016;2022-09-14T11:19:14;17.70;99.90
52273;DHT22;38227;50.942;4.016;2022-09-14T11:22:14;17.80;99.90
52273;DHT22;38227;50.942;4.016;2022-09-14T11:27:44;17.80;99.90
52273;DHT22;38227;50.942;4.016;2022-09-14T11:30:39;17.80;99.90
52273;DHT22;38227;50.942;4.016;2022-09-14T11:33:34;17.80;99.90
52273;DHT22;38227;50.942;4.016;2022-09-14T11:36:19;17.90;99.90
52273;DHT22;38227;50.942;4.016;2022-09-14T11:39:00;17.80;99.90
52273;DHT22;38227;50.942;4.016;2022-09-14T11:41:52;18.00;99.90
52273;DHT22;38227;50.942;4.016;2022-09-14T11:44:27;18.00;99.90
52273;DHT22;38227;50.942;4.016;2022-09-14T11:47:21;18.00;99.90
52273;DHT22;38227;50.942;4.016;2022-09-14T11:50:14;18.00;99.90
52273;DHT22;38227;50.942;4.016;2022-09-14T11:52:44;17.90;99.90
52273;DHT22;38227;50.942;4.016;2022-09-14T11:55:18;17.90;99.90
52273;DHT22;38227;50.942;4.016;2022-09-14T11:57:48;17.80;99.90
52273;DHT22;38227;50.942;4.016;2022-09-14T12:06:50;17.90;99.90
52273;DHT22;38227;50.942;4.016;2022-09-14T12:09:39;17.90;99.90
52273;DHT22;38227;50.942;4.016;2022-09-14T12:12:29;17.90;99.90
52273;DHT22;38227;50.942;4.016;2022-09-14T12:15:00;17.70;99.90
52273;DHT22;38227;50.942;4.016;2022-09-14T12:17:31;17.70;99.90
52273;DHT22;38227;50.942;4.016;2022-09-14T12:22:48;17.70;99.90
52273;DHT22;38227;50.942;4.016;2022-09-14T12:25:20;17.80;99.90
52273;DHT22;38227;50.942;4.016;2022-09-14T12:27:48;18.00;99.90
52273;DHT22;38227;50.942;4.016;2022-09-14T12:37:02;18.00;99.90
52273;DHT22;38227;50.942;4.016;2022-09-14T12:39:31;18.10;99.90
52273;DHT22;38227;50.942;4.016;2022-09-14T12:42:25;18.30;99.90
52273;DHT22;38227;50.942;4.016;2022-09-14T12:44:52;18.30;99.90
52273;DHT22;38227;50.942;4.016;2022-09-14T12:47:50;18.40;99.90
52273;DHT22;38227;50.942;4.016;2022-09-14T12:50:18;18.40;99.90
52273;DHT22;38227;50.942;4.016;2022-09-14T12:53:27;18.40;99.90
52273;DHT22;38227;50.942;4.016;2022-09-14T12:56:04;18.50;99.90
52273;DHT22;38227;50.942;4.016;2022-09-14T13:05:01;18.50;99.90
52273;DHT22;38227;50.942;4.016;2022-09-14T13:07:33;18.50;99.90
52273;DHT22;38227;50.942;4.016;2022-09-14T13:10:04;18.40;99.90
52273;DHT22;38227;50.942;4.016;2022-09-14T13:12:53;18.40;99.90
52273;DHT22;38227;50.942;4.016;2022-09-14T13:15:27;18.60;99.90
52273;DHT22;38227;50.942;4.016;2022-09-14T13:18:05;18.70;99.90
52273;DHT22;38227;50.942;4.016;2022-09-14T13:20:34;18.70;99.90
52273;DHT22;38227;50.942;4.016;2022-09-14T13:23:21;18.50;99.90
52273;DHT22;38227;50.942;4.016;2022-09-14T13:25:51;18.50;99.90
52273;DHT22;38227;50.942;4.016;2022-09-14T13:28:19;18.60;99.90
52273;DHT22;38227;50.942;4.016;2022-09-14T13:30:56;18.70;99.90
52273;DHT22;38227;50.942;4.016;2022-09-14T13:33:24;18.80;99.90
52273;DHT22;38227;50.942;4.016;2022-09-14T13:36:00;18.70;99.90
52273;DHT22;38227;50.942;4.016;2022-09-14T13:38:33;18.70;99.90
52273;DHT22;38227;50.942;4.016;2022-09-14T13:41:15;18.70;99.90
52273;DHT22;38227;50.942;4.016;2022-09-14T13:43:45;18.70;99.90
52273;DHT22;38227;50.942;4.016;2022-09-14T13:46:18;18.60;99.90
52273;DHT22;38227;50.942;4.016;2022-09-14T13:48:47;18.40;99.90
52273;DHT22;38227;50.942;4.016;2022-09-14T13:51:22;18.40;99.90
52273;DHT22;38227;50.942;4.016;2022-09-14T13:53:54;18.40;99.90
52273;DHT22;38227;50.942;4.016;2022-09-14T13:56:37;18.40;99.90
52273;DHT22;38227;50.942;4.016;2022-09-14T13:59:28;18.50;99.90
52273;DHT22;38227;50.942;4.016;2022-09-14T14:01:58;18.30;99.90
52273;DHT22;38227;50.942;4.016;2022-09-14T14:04:35;18.40;99.90
52273;DHT22;38227;50.942;4.016;2022-09-14T14:07:33;18.20;99.90
52273;DHT22;38227;50.942;4.016;2022-09-14T14:10:02;18.20;99.90
52273;DHT22;38227;50.942;4.016;2022-09-14T14:12:34;18.20;99.90
52273;DHT22;38227;50.942;4.016;2022-09-14T14:21:42;18.10;99.90
52273;DHT22;38227;50.942;4.016;2022-09-14T14:24:26;18.20;99.90
52273;DHT22;38227;50.942;4.016;2022-09-14T14:26:56;18.20;99.90
52273;DHT22;38227;50.942;4.016;2022-09-14T14:29:24;18.10;99.90
52273;DHT22;38227;50.942;4.016;2022-09-14T14:31:54;18.20;99.90
52273;DHT22;38227;50.942;4.016;2022-09-14T14:34:24;18.40;99.90
52273;DHT22;38227;50.942;4.016;2022-09-14T14:36:55;18.20;99.90
52273;DHT22;38227;50.942;4.016;2022-09-14T14:39:24;18.00;99.90
52273;DHT22;38227;50.942;4.016;2022-09-14T14:41:54;18.00;99.90
52273;DHT22;38227;50.942;4.016;2022-09-14T14:44:25;18.20;99.90
52273;DHT22;38227;50.942;4.016;2022-09-14T14:46:55;18.20;99.90
52273;DHT22;38227;50.942;4.016;2022-09-14T14:49:29;18.00;99.90
52273;DHT22;38227;50.942;4.016;2022-09-14T14:51:59;18.00;99.90
52273;DHT22;38227;50.942;4.016;2022-09-14T14:54:30;18.10;99.90
52273;DHT22;38227;50.942;4.016;2022-09-14T14:56:59;18.10;99.90
52273;DHT22;38227;50.942;4.016;2022-09-14T14:59:29;18.10;99.90
52273;DHT22;38227;50.942;4.016;2022-09-14T15:01:57;18.10;99.90
52273;DHT22;38227;50.942;4.016;2022-09-14T15:04:26;18.10;99.90
52273;DHT22;38227;50.942;4.016;2022-09-14T15:06:59;18.00;99.90
52273;DHT22;38227;50.942;4.016;2022-09-14T15:09:28;18.10;99.90
52273;DHT22;38227;50.942;4.016;2022-09-14T15:11:57;18.10;99.90
52273;DHT22;38227;50.942;4.016;2022-09-14T15:14:30;18.00;99.90
52273;DHT22;38227;50.942;4.016;2022-09-14T15:16:59;18.00;99.90
52273;DHT22;38227;50.942;4.016;2022-09-14T15:19:31;18.00;99.90
52273;DHT22;38227;50.942;4.016;2022-09-14T15:21:59;18.00;99.90
52273;DHT22;38227;50.942;4.016;2022-09-14T15:24:28;18.00;99.90
52273;DHT22;38227;50.942;4.016;2022-09-14T15:26:58;18.10;99.90
52273;DHT22;38227;50.942;4.016;2022-09-14T15:29:26;18.00;99.90
52273;DHT22;38227;50.942;4.016;2022-09-14T15:32:04;18.00;99.90
52273;DHT22;38227;50.942;4.016;2022-09-14T15:34:32;18.00;99.90
52273;DHT22;38227;50.942;4.016;2022-09-14T15:37:01;17.90;99.90
52273;DHT22;38227;50.942;4.016;2022-09-14T15:39:33;17.80;99.90
52273;DHT22;38227;50.942;4.016;2022-09-14T15:42:02;17.70;99.90
52273;DHT22;38227;50.942;4.016;2022-09-14T15:44:40;17.70;99.90
52273;DHT22;38227;50.942;4.016;2022-09-14T15:47:09;17.70;99.90
52273;DHT22;38227;50.942;4.016;2022-09-14T15:49:41;17.70;99.90
52273;DHT22;38227;50.942;4.016;2022-09-14T15:52:10;17.80;99.90
52273;DHT22;38227;50.942;4.016;2022-09-14T15:54:47;17.80;99.90
52273;DHT22;38227;50.942;4.016;2022-09-14T15:57:16;17.70;99.90
52273;DHT22;38227;50.942;4.016;2022-09-14T15:59:48;17.80;99.90
52273;DHT22;38227;50.942;4.016;2022-09-14T16:02:21;17.80;99.90
52273;DHT22;38227;50.942;4.016;2022-09-14T16:04:49;17.80;99.90
52273;DHT22;38227;50.942;4.016;2022-09-14T16:07:28;17.60;99.90
52273;DHT22;38227;50.942;4.016;2022-09-14T16:10:00;17.70;99.90
52273;DHT22;38227;50.942;4.016;2022-09-14T16:12:28;17.70;99.90
52273;DHT22;38227;50.942;4.016;2022-09-14T16:15:00;17.80;99.90
52273;DHT22;38227;50.942;4.016;2022-09-14T16:17:28;17.70;99.90
52273;DHT22;38227;50.942;4.016;2022-09-14T16:20:07;17.80;99.90
52273;DHT22;38227;50.942;4.016;2022-09-14T16:22:39;17.80;99.90
52273;DHT22;38227;50.942;4.016;2022-09-14T16:25:12;17.70;99.90
52273;DHT22;38227;50.942;4.016;2022-09-14T16:27:50;17.60;99.90
52273;DHT22;38227;50.942;4.016;2022-09-14T16:30:31;17.50;99.90
52273;DHT22;38227;50.942;4.016;2022-09-14T16:33:02;17.50;99.90
52273;DHT22;38227;50.942;4.016;2022-09-14T16:35:36;17.40;99.90
52273;DHT22;38227;50.942;4.016;2022-09-14T16:38:07;17.30;99.90
52273;DHT22;38227;50.942;4.016;2022-09-14T16:40:48;17.30;99.90
52273;DHT22;38227;50.942;4.016;2022-09-14T16:43:19;17.30;99.90
52273;DHT22;38227;50.942;4.016;2022-09-14T16:46:15;17.30;99.90
52273;DHT22;38227;50.942;4.016;2022-09-14T16:48:46;17.30;99.90
52273;DHT22;38227;50.942;4.016;2022-09-14T16:51:21;17.20;99.90
52273;DHT22;38227;50.942;4.016;2022-09-14T16:53:52;17.10;99.90
52273;DHT22;38227;50.942;4.016;2022-09-14T16:56:26;17.20;99.90
52273;DHT22;38227;50.942;4.016;2022-09-14T16:59:03;17.20;99.90
52273;DHT22;38227;50.942;4.016;2022-09-14T17:01:40;17.20;99.90
52273;DHT22;38227;50.942;4.016;2022-09-14T17:04:10;17.20;99.90
52273;DHT22;38227;50.942;4.016;2022-09-14T17:06:43;17.20;99.90
52273;DHT22;38227;50.942;4.016;2022-09-14T17:09:27;17.30;99.90
52273;DHT22;38227;50.942;4.016;2022-09-14T17:11:57;17.20;99.90
52273;DHT22;38227;50.942;4.016;2022-09-14T17:14:32;17.20;99.90
52273;DHT22;38227;50.942;4.016;2022-09-14T17:17:02;17.20;99.90
52273;DHT22;38227;50.942;4.016;2022-09-14T17:19:32;17.20;99.90
52273;DHT22;38227;50.942;4.016;2022-09-14T17:22:01;17.20;99.90
52273;DHT22;38227;50.942;4.016;2022-09-14T17:24:38;17.20;99.90
52273;DHT22;38227;50.942;4.016;2022-09-14T17:27:06;17.20;99.90
52273;DHT22;38227;50.942;4.016;2022-09-14T17:29:34;17.30;99.90
52273;DHT22;38227;50.942;4.016;2022-09-14T17:32:05;17.30;99.90
52273;DHT22;38227;50.942;4.016;2022-09-14T17:34:33;17.30;99.90
52273;DHT22;38227;50.942;4.016;2022-09-14T17:37:05;17.30;99.90
52273;DHT22;38227;50.942;4.016;2022-09-14T17:39:33;17.30;99.90
52273;DHT22;38227;50.942;4.016;2022-09-14T17:42:05;17.40;99.90
52273;DHT22;38227;50.942;4.016;2022-09-14T17:44:34;17.40;99.90
52273;DHT22;38227;50.942;4.016;2022-09-14T17:47:06;17.40;99.90
52273;DHT22;38227;50.942;4.016;2022-09-14T17:49:33;17.40;99.90
52273;DHT22;38227;50.942;4.016;2022-09-14T17:52:01;17.30;99.90
52273;DHT22;38227;50.942;4.016;2022-09-14T17:54:29;17.40;99.90
52273;DHT22;38227;50.942;4.016;2022-09-14T17:57:02;17.40;99.90
52273;DHT22;38227;50.942;4.016;2022-09-14T17:59:30;17.40;99.90
52273;DHT22;38227;50.942;4.016;2022-09-14T18:02:03;17.50;99.90
52273;DHT22;38227;50.942;4.016;2022-09-14T18:04:30;17.50;99.90
52273;DHT22;38227;50.942;4.016;2022-09-14T18:07:03;17.40;99.90
52273;DHT22;38227;50.942;4.016;2022-09-14T18:09:36;17.30;99.90
52273;DHT22;38227;50.942;4.016;2022-09-14T18:12:07;17.30;99.90
52273;DHT22;38227;50.942;4.016;2022-09-14T18:14:53;17.30;99.90
52273;DHT22;38227;50.942;4.016;2022-09-14T18:17:42;17.30;99.90
52273;DHT22;38227;50.942;4.016;2022-09-14T18:20:25;17.20;99.90
52273;DHT22;38227;50.942;4.016;2022-09-14T18:22:53;17.20;99.90
52273;DHT22;38227;50.942;4.016;2022-09-14T18:25:22;17.10;99.90
52273;DHT22;38227;50.942;4.016;2022-09-14T18:27:54;17.10;99.90
52273;DHT22;38227;50.942;4.016;2022-09-14T18:30:23;17.00;99.90
52273;DHT22;38227;50.942;4.016;2022-09-14T18:33:00;17.10;99.90
52273;DHT22;38227;50.942;4.016;2022-09-14T18:35:29;17.10;99.90
52273;DHT22;38227;50.942;4.016;2022-09-14T18:38:09;17.20;99.90
52273;DHT22;38227;50.942;4.016;2022-09-14T18:40:40;17.20;99.90
52273;DHT22;38227;50.942;4.016;2022-09-14T18:43:19;17.20;99.90
52273;DHT22;38227;50.942;4.016;2022-09-14T18:45:49;17.30;99.90
52273;DHT22;38227;50.942;4.016;2022-09-14T18:48:22;17.30;99.90
52273;DHT22;38227;50.942;4.016;2022-09-14T18:50:52;17.30;99.90
52273;DHT22;38227;50.942;4.016;2022-09-14T18:53:23;17.30;99.90
52273;DHT22;38227;50.942;4.016;2022-09-14T18:55:53;17.30;99.90
52273;DHT22;38227;50.942;4.016;2022-09-14T18:58:31;17.10;99.90
52273;DHT22;38227;50.942;4.016;2022-09-14T19:01:06;17.10;99.90
52273;DHT22;38227;50.942;4.016;2022-09-14T19:03:37;17.20;99.90
52273;DHT22;38227;50.942;4.016;2022-09-14T19:06:10;17.20;99.90
52273;DHT22;38227;50.942;4.016;2022-09-14T19:08:42;17.20;99.90
52273;DHT22;38227;50.942;4.016;2022-09-14T19:11:18;17.20;99.90
52273;DHT22;38227;50.942;4.016;2022-09-14T19:13:46;17.20;99.90
52273;DHT22;38227;50.942;4.016;2022-09-14T19:16:22;17.30;99.90
52273;DHT22;38227;50.942;4.016;2022-09-14T19:18:50;17.40;99.90
52273;DHT22;38227;50.942;4.016;2022-09-14T19:21:27;17.30;99.90
52273;DHT22;38227;50.942;4.016;2022-09-14T19:24:11;17.30;99.90
52273;DHT22;38227;50.942;4.016;2022-09-14T19:26:44;17.30;99.90
52273;DHT22;38227;50.942;4.016;2022-09-14T19:29:14;17.30;99.90
52273;DHT22;38227;50.942;4.016;2022-09-14T19:31:48;17.20;99.90
52273;DHT22;38227;50.942;4.016;2022-09-14T19:34:18;17.20;99.90
52273;DHT22;38227;50.942;4.016;2022-09-14T19:36:49;17.20;99.90
52273;DHT22;38227;50.942;4.016;2022-09-14T19:39:22;17.20;99.90
52273;DHT22;38227;50.942;4.016;2022-09-14T19:42:01;17.20;99.90
52273;DHT22;38227;50.942;4.016;2022-09-14T19:44:29;17.20;99.90
52273;DHT22;38227;50.942;4.016;2022-09-14T19:47:01;17.20;99.90
52273;DHT22;38227;50.942;4.016;2022-09-14T19:49:30;17.10;99.90
52273;DHT22;38227;50.942;4.016;2022-09-14T19:52:07;17.20;99.90
52273;DHT22;38227;50.942;4.016;2022-09-14T19:54:36;17.20;99.90
52273;DHT22;38227;50.942;4.016;2022-09-14T19:57:08;17.10;99.90
52273;DHT22;38227;50.942;4.016;2022-09-14T19:59:36;17.10;99.90
52273;DHT22;38227;50.942;4.016;2022-09-14T20:02:09;17.20;99.90
52273;DHT22;38227;50.942;4.016;2022-09-14T20:04:37;17.10;99.90
52273;DHT22;38227;50.942;4.016;2022-09-14T20:07:09;17.00;99.90
52273;DHT22;38227;50.942;4.016;2022-09-14T20:09:37;17.10;99.90
52273;DHT22;38227;50.942;4.016;2022-09-14T20:12:16;17.10;99.90
52273;DHT22;38227;50.942;4.016;2022-09-14T20:14:44;17.00;99.90
52273;DHT22;38227;50.942;4.016;2022-09-14T20:17:17;17.00;99.90
52273;DHT22;38227;50.942;4.016;2022-09-14T20:19:45;16.90;99.90
52273;DHT22;38227;50.942;4.016;2022-09-14T20:22:16;16.90;99.90
52273;DHT22;38227;50.942;4.016;2022-09-14T20:24:44;16.80;99.90
52273;DHT22;38227;50.942;4.016;2022-09-14T20:27:16;16.70;99.90
52273;DHT22;38227;50.942;4.016;2022-09-14T20:29:44;16.60;99.90
52273;DHT22;38227;50.942;4.016;2022-09-14T20:32:12;16.70;99.90
52273;DHT22;38227;50.942;4.016;2022-09-14T20:34:50;16.60;99.90
52273;DHT22;38227;50.942;4.016;2022-09-14T20:37:19;16.60;99.90
52273;DHT22;38227;50.942;4.016;2022-09-14T20:39:51;16.60;99.90
52273;DHT22;38227;50.942;4.016;2022-09-14T20:42:19;16.60;99.90
52273;DHT22;38227;50.942;4.016;2022-09-14T20:44:47;16.50;99.90
52273;DHT22;38227;50.942;4.016;2022-09-14T20:47:20;16.40;99.90
52273;DHT22;38227;50.942;4.016;2022-09-14T20:49:49;16.40;99.90
52273;DHT22;38227;50.942;4.016;2022-09-14T20:52:27;16.40;99.90
52273;DHT22;38227;50.942;4.016;2022-09-14T20:54:56;16.40;99.90
52273;DHT22;38227;50.942;4.016;2022-09-14T20:57:24;16.40;99.90
52273;DHT22;38227;50.942;4.016;2022-09-14T20:59:56;16.30;99.90
52273;DHT22;38227;50.942;4.016;2022-09-14T21:02:24;16.30;99.90
52273;DHT22;38227;50.942;4.016;2022-09-14T21:04:56;16.30;99.90
52273;DHT22;38227;50.942;4.016;2022-09-14T21:07:24;16.30;99.90
52273;DHT22;38227;50.942;4.016;2022-09-14T21:09:52;16.20;99.90
52273;DHT22;38227;50.942;4.016;2022-09-14T21:12:24;16.20;99.90
52273;DHT22;38227;50.942;4.016;2022-09-14T21:14:53;16.10;99.90
52273;DHT22;38227;50.942;4.016;2022-09-14T21:17:25;16.00;99.90
52273;DHT22;38227;50.942;4.016;2022-09-14T21:19:53;15.90;99.90
52273;DHT22;38227;50.942;4.016;2022-09-14T21:22:22;16.00;99.90
52273;DHT22;38227;50.942;4.016;2022-09-14T21:25:00;16.00;99.90
52273;DHT22;38227;50.942;4.016;2022-09-14T21:27:30;15.90;99.90
52273;DHT22;38227;50.942;4.016;2022-09-14T21:30:18;15.80;99.90
52273;DHT22;38227;50.942;4.016;2022-09-14T21:32:48;15.80;99.90
52273;DHT22;38227;50.942;4.016;2022-09-14T21:35:18;15.70;99.90
52273;DHT22;38227;50.942;4.016;2022-09-14T21:37:48;15.60;99.90
52273;DHT22;38227;50.942;4.016;2022-09-14T21:40:17;15.60;99.90
52273;DHT22;38227;50.942;4.016;2022-09-14T21:42:49;15.60;99.90
52273;DHT22;38227;50.942;4.016;2022-09-14T21:45:17;15.60;99.90
52273;DHT22;38227;50.942;4.016;2022-09-14T21:47:49;15.60;99.90
52273;DHT22;38227;50.942;4.016;2022-09-14T21:50:17;15.50;99.90
52273;DHT22;38227;50.942;4.016;2022-09-14T21:52:45;15.50;99.90
52273;DHT22;38227;50.942;4.016;2022-09-14T21:55:23;15.50;99.90
52273;DHT22;38227;50.942;4.016;2022-09-14T21:57:53;15.60;99.90
52273;DHT22;38227;50.942;4.016;2022-09-14T22:00:24;15.60;99.90
52273;DHT22;38227;50.942;4.016;2022-09-14T22:02:54;15.80;99.90
52273;DHT22;38227;50.942;4.016;2022-09-14T22:05:32;16.00;99.90
52273;DHT22;38227;50.942;4.016;2022-09-14T22:08:00;15.80;99.90
52273;DHT22;38227;50.942;4.016;2022-09-14T22:10:36;15.60;99.90
52273;DHT22;38227;50.942;4.016;2022-09-14T22:13:04;15.50;99.90
52273;DHT22;38227;50.942;4.016;2022-09-14T22:15:43;15.60;99.90
52273;DHT22;38227;50.942;4.016;2022-09-14T22:18:11;15.60;99.90
52273;DHT22;38227;50.942;4.016;2022-09-14T22:20:40;15.60;99.90
52273;DHT22;38227;50.942;4.016;2022-09-14T22:23:12;15.60;99.90
52273;DHT22;38227;50.942;4.016;2022-09-14T22:25:40;15.50;99.90
52273;DHT22;38227;50.942;4.016;2022-09-14T22:28:12;15.40;99.90
52273;DHT22;38227;50.942;4.016;2022-09-14T22:30:48;15.40;99.90
52273;DHT22;38227;50.942;4.016;2022-09-14T22:33:18;15.40;99.90
52273;DHT22;38227;50.942;4.016;2022-09-14T22:35:59;15.40;99.90
52273;DHT22;38227;50.942;4.016;2022-09-14T22:38:30;15.30;99.90
52273;DHT22;38227;50.942;4.016;2022-09-14T22:41:04;15.20;99.90
52273;DHT22;38227;50.942;4.016;2022-09-14T22:43:33;15.30;99.90
52273;DHT22;38227;50.942;4.016;2022-09-14T22:46:02;15.40;99.90
52273;DHT22;38227;50.942;4.016;2022-09-14T22:48:30;15.50;99.90
52273;DHT22;38227;50.942;4.016;2022-09-14T22:50:59;15.50;99.90
52273;DHT22;38227;50.942;4.016;2022-09-14T22:53:29;15.40;99.90
52273;DHT22;38227;50.942;4.016;2022-09-14T22:56:07;15.40;99.90
52273;DHT22;38227;50.942;4.016;2022-09-14T22:58:47;15.40;99.90
52273;DHT22;38227;50.942;4.016;2022-09-14T23:01:17;15.40;99.90
52273;DHT22;38227;50.942;4.016;2022-09-14T23:03:46;15.40;99.90
52273;DHT22;38227;50.942;4.016;2022-09-14T23:06:15;15.60;99.90
52273;DHT22;38227;50.942;4.016;2022-09-14T23:08:53;15.50;99.90
52273;DHT22;38227;50.942;4.016;2022-09-14T23:11:23;15.50;99.90
52273;DHT22;38227;50.942;4.016;2022-09-14T23:13:51;15.50;99.90
52273;DHT22;38227;50.942;4.016;2022-09-14T23:16:21;15.20;99.90
52273;DHT22;38227;50.942;4.016;2022-09-14T23:18:54;14.90;99.90
52273;DHT22;38227;50.942;4.016;2022-09-14T23:21:24;14.90;99.90
52273;DHT22;38227;50.942;4.016;2022-09-14T23:23:55;14.90;99.90
52273;DHT22;38227;50.942;4.016;2022-09-14T23:26:24;14.90;99.90
52273;DHT22;38227;50.942;4.016;2022-09-14T23:28:57;15.00;99.90
52273;DHT22;38227;50.942;4.016;2022-09-14T23:31:27;15.20;99.90
52273;DHT22;38227;50.942;4.016;2022-09-14T23:34:00;15.20;99.90
52273;DHT22;38227;50.942;4.016;2022-09-14T23:36:32;15.10;99.90
52273;DHT22;38227;50.942;4.016;2022-09-14T23:39:02;15.00;99.90
52273;DHT22;38227;50.942;4.016;2022-09-14T23:41:31;14.90;99.90
52273;DHT22;38227;50.942;4.016;2022-09-14T23:44:04;15.10;99.90
52273;DHT22;38227;50.942;4.016;2022-09-14T23:46:32;15.20;99.90
52273;DHT22;38227;50.942;4.016;2022-09-14T23:49:03;15.30;99.90
52273;DHT22;38227;50.942;4.016;2022-09-14T23:51:31;15.40;99.90
52273;DHT22;38227;50.942;4.016;2022-09-14T23:54:10;15.40;99.90
52273;DHT22;38227;50.942;4.016;2022-09-14T23:56:40;15.30;99.90
52273;DHT22;38227;50.942;4.016;2022-09-14T23:59:11;15.20;99.90
